sensor_id;sensor_type;location;lat;lon;timestamp;P1;durP1;ratioP1;P2;durP2;ratioP2
75739;SDS011;64357;51.344;6.550;2023-11-21T00:02:19;16.73;;;6.68;;
75739;SDS011;64357;51.344;6.550;2023-11-21T00:04:45;16.63;;;6.70;;
75739;SDS011;64357;51.344;6.550;2023-11-21T00:07:13;14.17;;;6.27;;
75739;SDS011;64357;51.344;6.550;2023-11-21T00:09:42;16.30;;;6.90;;
75739;SDS011;64357;51.344;6.550;2023-11-21T00:12:08;18.20;;;6.23;;
75739;SDS011;64357;51.344;6.550;2023-11-21T00:14:39;15.18;;;6.28;;
75739;SDS011;64357;51.344;6.550;2023-11-21T00:17:05;19.38;;;6.80;;
75739;SDS011;64357;51.344;6.550;2023-11-21T00:19:31;18.23;;;6.45;;
75739;SDS011;64357;51.344;6.550;2023-11-21T00:21:57;17.20;;;6.72;;
75739;SDS011;64357;51.344;6.550;2023-11-21T00:24:25;13.55;;;6.20;;
75739;SDS011;64357;51.344;6.550;2023-11-21T00:26:55;15.05;;;6.28;;
75739;SDS011;64357;51.344;6.550;2023-11-21T00:29:20;18.50;;;6.50;;
75739;SDS011;64357;51.344;6.550;2023-11-21T00:31:46;18.47;;;6.47;;
75739;SDS011;64357;51.344;6.550;2023-11-21T00:34:11;16.83;;;6.87;;
75739;SDS011;64357;51.344;6.550;2023-11-21T00:36:40;14.57;;;5.93;;
75739;SDS011;64357;51.344;6.550;2023-11-21T00:39:05;17.55;;;6.85;;
75739;SDS011;64357;51.344;6.550;2023-11-21T00:41:31;14.77;;;6.50;;
75739;SDS011;64357;51.344;6.550;2023-11-21T00:44:00;17.20;;;6.68;;
75739;SDS011;64357;51.344;6.550;2023-11-21T00:46:25;14.55;;;6.70;;
75739;SDS011;64357;51.344;6.550;2023-11-21T00:48:56;17.75;;;6.40;;
75739;SDS011;64357;51.344;6.550;2023-11-21T00:51:22;15.27;;;6.65;;
75739;SDS011;64357;51.344;6.550;2023-11-21T00:53:48;19.55;;;6.68;;
75739;SDS011;64357;51.344;6.550;2023-11-21T00:56:15;15.70;;;6.07;;
75739;SDS011;64357;51.344;6.550;2023-11-21T00:58:41;14.68;;;6.45;;
75739;SDS011;64357;51.344;6.550;2023-11-21T01:01:14;16.30;;;7.03;;
75739;SDS011;64357;51.344;6.550;2023-11-21T01:03:39;15.20;;;6.95;;
75739;SDS011;64357;51.344;6.550;2023-11-21T01:06:05;17.90;;;6.82;;
75739;SDS011;64357;51.344;6.550;2023-11-21T01:08:33;15.45;;;6.55;;
75739;SDS011;64357;51.344;6.550;2023-11-21T01:10:59;18.17;;;7.60;;
75739;SDS011;64357;51.344;6.550;2023-11-21T01:13:24;18.70;;;6.37;;
75739;SDS011;64357;51.344;6.550;2023-11-21T01:15:54;15.30;;;7.10;;
75739;SDS011;64357;51.344;6.550;2023-11-21T01:18:20;16.83;;;6.78;;
75739;SDS011;64357;51.344;6.550;2023-11-21T01:20:46;16.75;;;7.43;;
75739;SDS011;64357;51.344;6.550;2023-11-21T01:23:12;15.10;;;6.90;;
75739;SDS011;64357;51.344;6.550;2023-11-21T01:25:40;17.45;;;6.90;;
75739;SDS011;64357;51.344;6.550;2023-11-21T01:28:06;19.13;;;7.28;;
75739;SDS011;64357;51.344;6.550;2023-11-21T01:30:32;16.00;;;6.55;;
75739;SDS011;64357;51.344;6.550;2023-11-21T01:32:58;18.17;;;6.90;;
75739;SDS011;64357;51.344;6.550;2023-11-21T01:35:24;19.13;;;7.40;;
75739;SDS011;64357;51.344;6.550;2023-11-21T01:37:49;17.35;;;7.25;;
75739;SDS011;64357;51.344;6.550;2023-11-21T01:40:14;18.00;;;6.97;;
75739;SDS011;64357;51.344;6.550;2023-11-21T01:42:40;19.63;;;7.23;;
75739;SDS011;64357;51.344;6.550;2023-11-21T01:45:09;20.17;;;7.47;;
75739;SDS011;64357;51.344;6.550;2023-11-21T01:47:35;18.33;;;7.50;;
75739;SDS011;64357;51.344;6.550;2023-11-21T01:50:03;18.13;;;6.95;;
75739;SDS011;64357;51.344;6.550;2023-11-21T01:52:31;14.27;;;6.50;;
75739;SDS011;64357;51.344;6.550;2023-11-21T01:54:59;18.05;;;7.55;;
75739;SDS011;64357;51.344;6.550;2023-11-21T01:57:25;18.55;;;7.07;;
75739;SDS011;64357;51.344;6.550;2023-11-21T01:59:51;17.08;;;7.60;;
75739;SDS011;64357;51.344;6.550;2023-11-21T02:02:23;16.25;;;7.47;;
75739;SDS011;64357;51.344;6.550;2023-11-21T02:04:49;22.85;;;7.13;;
75739;SDS011;64357;51.344;6.550;2023-11-21T02:07:14;21.15;;;6.50;;
75739;SDS011;64357;51.344;6.550;2023-11-21T02:09:40;21.67;;;7.83;;
75739;SDS011;64357;51.344;6.550;2023-11-21T02:12:07;18.73;;;7.32;;
75739;SDS011;64357;51.344;6.550;2023-11-21T02:14:36;16.60;;;6.82;;
75739;SDS011;64357;51.344;6.550;2023-11-21T02:17:01;18.00;;;6.93;;
75739;SDS011;64357;51.344;6.550;2023-11-21T02:19:31;19.52;;;6.72;;
75739;SDS011;64357;51.344;6.550;2023-11-21T02:21:59;16.90;;;6.55;;
75739;SDS011;64357;51.344;6.550;2023-11-21T02:24:25;16.20;;;7.68;;
75739;SDS011;64357;51.344;6.550;2023-11-21T02:26:54;17.25;;;6.88;;
75739;SDS011;64357;51.344;6.550;2023-11-21T02:29:22;20.70;;;7.82;;
75739;SDS011;64357;51.344;6.550;2023-11-21T02:31:52;18.70;;;7.93;;
75739;SDS011;64357;51.344;6.550;2023-11-21T02:34:19;16.00;;;7.20;;
75739;SDS011;64357;51.344;6.550;2023-11-21T02:36:46;19.02;;;7.13;;
75739;SDS011;64357;51.344;6.550;2023-11-21T02:39:17;19.83;;;7.40;;
75739;SDS011;64357;51.344;6.550;2023-11-21T02:41:43;19.33;;;6.97;;
75739;SDS011;64357;51.344;6.550;2023-11-21T02:44:11;19.67;;;6.82;;
75739;SDS011;64357;51.344;6.550;2023-11-21T02:46:36;18.40;;;7.25;;
75739;SDS011;64357;51.344;6.550;2023-11-21T02:49:02;19.83;;;5.90;;
75739;SDS011;64357;51.344;6.550;2023-11-21T02:51:29;16.38;;;7.57;;
75739;SDS011;64357;51.344;6.550;2023-11-21T02:53:58;15.50;;;6.75;;
75739;SDS011;64357;51.344;6.550;2023-11-21T02:56:26;18.55;;;7.57;;
75739;SDS011;64357;51.344;6.550;2023-11-21T02:58:58;18.25;;;7.72;;
75739;SDS011;64357;51.344;6.550;2023-11-21T03:01:25;17.50;;;7.18;;
75739;SDS011;64357;51.344;6.550;2023-11-21T03:03:50;18.65;;;7.22;;
75739;SDS011;64357;51.344;6.550;2023-11-21T03:06:21;19.48;;;6.93;;
75739;SDS011;64357;51.344;6.550;2023-11-21T03:08:49;18.75;;;6.70;;
75739;SDS011;64357;51.344;6.550;2023-11-21T03:11:16;20.25;;;7.18;;
75739;SDS011;64357;51.344;6.550;2023-11-21T03:13:44;21.27;;;6.65;;
75739;SDS011;64357;51.344;6.550;2023-11-21T03:16:10;18.65;;;6.75;;
75739;SDS011;64357;51.344;6.550;2023-11-21T03:18:39;20.15;;;7.80;;
75739;SDS011;64357;51.344;6.550;2023-11-21T03:21:05;18.08;;;7.22;;
75739;SDS011;64357;51.344;6.550;2023-11-21T03:23:34;20.90;;;7.93;;
75739;SDS011;64357;51.344;6.550;2023-11-21T03:26:00;20.15;;;6.85;;
75739;SDS011;64357;51.344;6.550;2023-11-21T03:28:26;20.80;;;6.72;;
75739;SDS011;64357;51.344;6.550;2023-11-21T03:30:55;18.50;;;7.43;;
75739;SDS011;64357;51.344;6.550;2023-11-21T03:33:21;22.40;;;8.13;;
75739;SDS011;64357;51.344;6.550;2023-11-21T03:35:51;21.50;;;7.50;;
75739;SDS011;64357;51.344;6.550;2023-11-21T03:38:18;16.92;;;6.57;;
75739;SDS011;64357;51.344;6.550;2023-11-21T03:40:43;19.27;;;7.65;;
75739;SDS011;64357;51.344;6.550;2023-11-21T03:43:08;25.70;;;7.63;;
75739;SDS011;64357;51.344;6.550;2023-11-21T03:45:36;19.47;;;6.97;;
75739;SDS011;64357;51.344;6.550;2023-11-21T03:48:02;19.90;;;7.90;;
75739;SDS011;64357;51.344;6.550;2023-11-21T03:50:28;17.90;;;7.40;;
75739;SDS011;64357;51.344;6.550;2023-11-21T03:52:54;25.48;;;8.05;;
75739;SDS011;64357;51.344;6.550;2023-11-21T03:55:21;21.00;;;7.53;;
75739;SDS011;64357;51.344;6.550;2023-11-21T03:57:49;21.73;;;7.80;;
75739;SDS011;64357;51.344;6.550;2023-11-21T04:00:16;18.88;;;7.20;;
75739;SDS011;64357;51.344;6.550;2023-11-21T04:02:42;21.00;;;7.00;;
75739;SDS011;64357;51.344;6.550;2023-11-21T04:05:08;22.57;;;7.90;;
75739;SDS011;64357;51.344;6.550;2023-11-21T04:07:34;22.55;;;8.48;;
75739;SDS011;64357;51.344;6.550;2023-11-21T04:10:00;19.60;;;7.55;;
75739;SDS011;64357;51.344;6.550;2023-11-21T04:12:28;22.13;;;8.10;;
75739;SDS011;64357;51.344;6.550;2023-11-21T04:14:53;23.60;;;7.80;;
75739;SDS011;64357;51.344;6.550;2023-11-21T04:17:19;22.30;;;7.35;;
75739;SDS011;64357;51.344;6.550;2023-11-21T04:19:45;20.67;;;7.13;;
75739;SDS011;64357;51.344;6.550;2023-11-21T04:22:13;21.88;;;7.55;;
75739;SDS011;64357;51.344;6.550;2023-11-21T04:24:38;27.73;;;8.67;;
75739;SDS011;64357;51.344;6.550;2023-11-21T04:27:06;22.10;;;7.32;;
75739;SDS011;64357;51.344;6.550;2023-11-21T04:29:31;18.77;;;7.20;;
75739;SDS011;64357;51.344;6.550;2023-11-21T04:31:56;24.70;;;7.37;;
75739;SDS011;64357;51.344;6.550;2023-11-21T04:34:22;23.30;;;7.03;;
75739;SDS011;64357;51.344;6.550;2023-11-21T04:36:47;26.20;;;9.20;;
75739;SDS011;64357;51.344;6.550;2023-11-21T04:39:12;24.07;;;8.57;;
75739;SDS011;64357;51.344;6.550;2023-11-21T04:41:38;25.53;;;8.40;;
75739;SDS011;64357;51.344;6.550;2023-11-21T04:44:05;24.17;;;7.93;;
75739;SDS011;64357;51.344;6.550;2023-11-21T04:46:31;25.50;;;9.27;;
75739;SDS011;64357;51.344;6.550;2023-11-21T04:48:57;24.33;;;9.13;;
75739;SDS011;64357;51.344;6.550;2023-11-21T04:51:25;24.83;;;8.75;;
75739;SDS011;64357;51.344;6.550;2023-11-21T04:53:50;25.73;;;8.27;;
75739;SDS011;64357;51.344;6.550;2023-11-21T04:56:16;27.60;;;8.95;;
75739;SDS011;64357;51.344;6.550;2023-11-21T04:58:41;23.17;;;7.73;;
75739;SDS011;64357;51.344;6.550;2023-11-21T05:01:07;29.02;;;8.80;;
75739;SDS011;64357;51.344;6.550;2023-11-21T05:03:33;27.50;;;9.13;;
75739;SDS011;64357;51.344;6.550;2023-11-21T05:06:00;21.77;;;8.03;;
75739;SDS011;64357;51.344;6.550;2023-11-21T05:08:30;24.48;;;8.60;;
75739;SDS011;64357;51.344;6.550;2023-11-21T05:10:55;24.92;;;8.00;;
75739;SDS011;64357;51.344;6.550;2023-11-21T05:13:21;27.30;;;8.67;;
75739;SDS011;64357;51.344;6.550;2023-11-21T05:15:47;30.33;;;8.48;;
75739;SDS011;64357;51.344;6.550;2023-11-21T05:18:12;25.90;;;9.50;;
75739;SDS011;64357;51.344;6.550;2023-11-21T05:20:40;27.92;;;9.15;;
75739;SDS011;64357;51.344;6.550;2023-11-21T05:23:06;25.88;;;8.77;;
75739;SDS011;64357;51.344;6.550;2023-11-21T05:25:32;26.02;;;9.45;;
75739;SDS011;64357;51.344;6.550;2023-11-21T05:27:58;29.30;;;9.35;;
75739;SDS011;64357;51.344;6.550;2023-11-21T05:30:26;30.33;;;10.07;;
75739;SDS011;64357;51.344;6.550;2023-11-21T05:32:51;20.58;;;7.40;;
75739;SDS011;64357;51.344;6.550;2023-11-21T05:35:19;28.20;;;10.03;;
75739;SDS011;64357;51.344;6.550;2023-11-21T05:37:45;34.17;;;10.50;;
75739;SDS011;64357;51.344;6.550;2023-11-21T05:40:11;32.47;;;10.07;;
75739;SDS011;64357;51.344;6.550;2023-11-21T05:42:39;27.17;;;8.75;;
75739;SDS011;64357;51.344;6.550;2023-11-21T05:45:09;27.67;;;8.07;;
75739;SDS011;64357;51.344;6.550;2023-11-21T05:47:38;30.75;;;8.75;;
75739;SDS011;64357;51.344;6.550;2023-11-21T05:50:08;30.63;;;8.57;;
75739;SDS011;64357;51.344;6.550;2023-11-21T05:52:42;31.42;;;9.73;;
75739;SDS011;64357;51.344;6.550;2023-11-21T05:55:08;27.20;;;7.53;;
75739;SDS011;64357;51.344;6.550;2023-11-21T05:57:34;31.52;;;8.70;;
75739;SDS011;64357;51.344;6.550;2023-11-21T06:00:02;20.83;;;7.85;;
75739;SDS011;64357;51.344;6.550;2023-11-21T06:02:35;31.27;;;8.73;;
75739;SDS011;64357;51.344;6.550;2023-11-21T06:05:00;28.67;;;7.67;;
75739;SDS011;64357;51.344;6.550;2023-11-21T06:07:26;33.17;;;9.18;;
75739;SDS011;64357;51.344;6.550;2023-11-21T06:09:51;31.07;;;8.10;;
75739;SDS011;64357;51.344;6.550;2023-11-21T06:12:16;30.17;;;8.27;;
75739;SDS011;64357;51.344;6.550;2023-11-21T06:14:42;30.88;;;9.63;;
75739;SDS011;64357;51.344;6.550;2023-11-21T06:17:07;28.90;;;9.40;;
75739;SDS011;64357;51.344;6.550;2023-11-21T06:19:32;29.92;;;9.77;;
75739;SDS011;64357;51.344;6.550;2023-11-21T06:21:58;28.77;;;9.60;;
75739;SDS011;64357;51.344;6.550;2023-11-21T06:24:23;28.57;;;9.10;;
75739;SDS011;64357;51.344;6.550;2023-11-21T06:26:49;29.30;;;8.53;;
75739;SDS011;64357;51.344;6.550;2023-11-21T06:29:14;32.78;;;10.27;;
75739;SDS011;64357;51.344;6.550;2023-11-21T06:31:40;35.85;;;10.60;;
75739;SDS011;64357;51.344;6.550;2023-11-21T06:34:08;34.38;;;9.75;;
75739;SDS011;64357;51.344;6.550;2023-11-21T06:36:34;39.90;;;10.38;;
75739;SDS011;64357;51.344;6.550;2023-11-21T06:39:02;40.58;;;10.75;;
75739;SDS011;64357;51.344;6.550;2023-11-21T06:41:27;34.60;;;8.70;;
75739;SDS011;64357;51.344;6.550;2023-11-21T06:43:53;44.37;;;11.50;;
75739;SDS011;64357;51.344;6.550;2023-11-21T06:46:18;32.80;;;11.30;;
75739;SDS011;64357;51.344;6.550;2023-11-21T06:48:45;38.85;;;12.20;;
75739;SDS011;64357;51.344;6.550;2023-11-21T06:51:11;35.33;;;10.65;;
75739;SDS011;64357;51.344;6.550;2023-11-21T06:53:36;43.60;;;12.87;;
75739;SDS011;64357;51.344;6.550;2023-11-21T06:56:02;43.00;;;12.77;;
75739;SDS011;64357;51.344;6.550;2023-11-21T06:58:28;37.90;;;11.63;;
75739;SDS011;64357;51.344;6.550;2023-11-21T07:00:54;35.83;;;11.98;;
75739;SDS011;64357;51.344;6.550;2023-11-21T07:03:19;45.22;;;12.50;;
75739;SDS011;64357;51.344;6.550;2023-11-21T07:05:45;40.10;;;12.43;;
75739;SDS011;64357;51.344;6.550;2023-11-21T07:08:10;38.47;;;12.20;;
75739;SDS011;64357;51.344;6.550;2023-11-21T07:10:37;39.90;;;12.88;;
75739;SDS011;64357;51.344;6.550;2023-11-21T07:13:03;42.90;;;16.10;;
75739;SDS011;64357;51.344;6.550;2023-11-21T07:15:31;40.10;;;12.77;;
75739;SDS011;64357;51.344;6.550;2023-11-21T07:17:57;41.88;;;13.93;;
75739;SDS011;64357;51.344;6.550;2023-11-21T07:20:23;38.88;;;12.93;;
75739;SDS011;64357;51.344;6.550;2023-11-21T07:22:48;43.37;;;12.00;;
75739;SDS011;64357;51.344;6.550;2023-11-21T07:25:14;49.67;;;13.77;;
75739;SDS011;64357;51.344;6.550;2023-11-21T07:27:41;42.13;;;12.63;;
75739;SDS011;64357;51.344;6.550;2023-11-21T07:30:07;39.20;;;11.97;;
75739;SDS011;64357;51.344;6.550;2023-11-21T07:32:34;38.80;;;13.55;;
75739;SDS011;64357;51.344;6.550;2023-11-21T07:35:04;38.05;;;11.77;;
75739;SDS011;64357;51.344;6.550;2023-11-21T07:37:33;35.47;;;11.20;;
75739;SDS011;64357;51.344;6.550;2023-11-21T07:40:03;32.40;;;10.10;;
75739;SDS011;64357;51.344;6.550;2023-11-21T07:42:28;36.90;;;12.65;;
75739;SDS011;64357;51.344;6.550;2023-11-21T07:44:54;36.63;;;12.33;;
75739;SDS011;64357;51.344;6.550;2023-11-21T07:47:19;41.33;;;13.67;;
75739;SDS011;64357;51.344;6.550;2023-11-21T07:49:44;43.93;;;12.87;;
75739;SDS011;64357;51.344;6.550;2023-11-21T07:52:14;36.35;;;11.63;;
75739;SDS011;64357;51.344;6.550;2023-11-21T07:54:42;47.50;;;13.63;;
75739;SDS011;64357;51.344;6.550;2023-11-21T07:57:08;43.88;;;13.55;;
75739;SDS011;64357;51.344;6.550;2023-11-21T07:59:38;48.47;;;14.73;;
75739;SDS011;64357;51.344;6.550;2023-11-21T08:02:03;38.50;;;13.30;;
75739;SDS011;64357;51.344;6.550;2023-11-21T08:04:29;42.67;;;13.35;;
75739;SDS011;64357;51.344;6.550;2023-11-21T08:06:54;31.65;;;11.55;;
75739;SDS011;64357;51.344;6.550;2023-11-21T08:09:20;38.87;;;11.83;;
75739;SDS011;64357;51.344;6.550;2023-11-21T08:11:48;35.47;;;11.82;;
75739;SDS011;64357;51.344;6.550;2023-11-21T08:14:14;30.63;;;10.80;;
75739;SDS011;64357;51.344;6.550;2023-11-21T08:16:40;35.58;;;11.75;;
75739;SDS011;64357;51.344;6.550;2023-11-21T08:19:05;32.72;;;9.80;;
75739;SDS011;64357;51.344;6.550;2023-11-21T08:21:31;29.45;;;10.68;;
75739;SDS011;64357;51.344;6.550;2023-11-21T08:23:56;34.30;;;10.98;;
75739;SDS011;64357;51.344;6.550;2023-11-21T08:26:22;29.38;;;10.27;;
75739;SDS011;64357;51.344;6.550;2023-11-21T08:28:48;32.13;;;12.52;;
75739;SDS011;64357;51.344;6.550;2023-11-21T08:31:17;34.17;;;12.35;;
75739;SDS011;64357;51.344;6.550;2023-11-21T08:33:48;34.08;;;12.07;;
75739;SDS011;64357;51.344;6.550;2023-11-21T08:36:13;36.17;;;12.63;;
75739;SDS011;64357;51.344;6.550;2023-11-21T08:38:38;34.70;;;11.23;;
75739;SDS011;64357;51.344;6.550;2023-11-21T08:41:06;29.65;;;10.93;;
75739;SDS011;64357;51.344;6.550;2023-11-21T08:43:34;25.98;;;10.63;;
75739;SDS011;64357;51.344;6.550;2023-11-21T08:46:07;34.05;;;10.77;;
75739;SDS011;64357;51.344;6.550;2023-11-21T08:48:34;29.92;;;10.32;;
75739;SDS011;64357;51.344;6.550;2023-11-21T08:51:01;26.25;;;10.02;;
75739;SDS011;64357;51.344;6.550;2023-11-21T08:53:26;31.95;;;10.95;;
75739;SDS011;64357;51.344;6.550;2023-11-21T08:55:51;31.87;;;11.40;;
75739;SDS011;64357;51.344;6.550;2023-11-21T08:58:17;37.13;;;11.68;;
75739;SDS011;64357;51.344;6.550;2023-11-21T09:00:43;35.10;;;11.23;;
75739;SDS011;64357;51.344;6.550;2023-11-21T09:03:09;33.58;;;12.68;;
75739;SDS011;64357;51.344;6.550;2023-11-21T09:05:37;30.63;;;11.73;;
75739;SDS011;64357;51.344;6.550;2023-11-21T09:08:05;30.33;;;10.80;;
75739;SDS011;64357;51.344;6.550;2023-11-21T09:10:31;31.20;;;10.50;;
75739;SDS011;64357;51.344;6.550;2023-11-21T09:12:58;34.80;;;11.68;;
75739;SDS011;64357;51.344;6.550;2023-11-21T09:15:24;33.72;;;10.65;;
75739;SDS011;64357;51.344;6.550;2023-11-21T09:17:52;29.33;;;10.38;;
75739;SDS011;64357;51.344;6.550;2023-11-21T09:20:18;32.15;;;11.10;;
75739;SDS011;64357;51.344;6.550;2023-11-21T09:22:43;30.30;;;11.15;;
75739;SDS011;64357;51.344;6.550;2023-11-21T09:25:11;34.83;;;11.50;;
75739;SDS011;64357;51.344;6.550;2023-11-21T09:27:37;30.17;;;11.50;;
75739;SDS011;64357;51.344;6.550;2023-11-21T09:30:03;29.25;;;11.63;;
75739;SDS011;64357;51.344;6.550;2023-11-21T09:32:33;30.23;;;10.52;;
75739;SDS011;64357;51.344;6.550;2023-11-21T09:35:02;25.40;;;9.70;;
75739;SDS011;64357;51.344;6.550;2023-11-21T09:37:29;26.45;;;10.05;;
75739;SDS011;64357;51.344;6.550;2023-11-21T09:39:55;34.00;;;11.15;;
75739;SDS011;64357;51.344;6.550;2023-11-21T09:42:25;27.63;;;10.23;;
75739;SDS011;64357;51.344;6.550;2023-11-21T09:47:35;35.80;;;11.88;;
75739;SDS011;64357;51.344;6.550;2023-11-21T09:50:03;27.20;;;9.38;;
75739;SDS011;64357;51.344;6.550;2023-11-21T09:52:33;32.28;;;11.02;;
75739;SDS011;64357;51.344;6.550;2023-11-21T09:55:10;32.30;;;11.40;;
75739;SDS011;64357;51.344;6.550;2023-11-21T09:57:40;30.40;;;11.07;;
75739;SDS011;64357;51.344;6.550;2023-11-21T10:00:07;32.33;;;11.98;;
75739;SDS011;64357;51.344;6.550;2023-11-21T10:02:36;27.85;;;10.25;;
75739;SDS011;64357;51.344;6.550;2023-11-21T10:05:05;34.90;;;12.45;;
75739;SDS011;64357;51.344;6.550;2023-11-21T10:07:31;30.30;;;11.15;;
75739;SDS011;64357;51.344;6.550;2023-11-21T10:10:02;32.33;;;10.60;;
75739;SDS011;64357;51.344;6.550;2023-11-21T10:12:30;32.92;;;11.48;;
75739;SDS011;64357;51.344;6.550;2023-11-21T10:14:59;29.30;;;10.90;;
75739;SDS011;64357;51.344;6.550;2023-11-21T10:17:30;29.58;;;11.23;;
75739;SDS011;64357;51.344;6.550;2023-11-21T10:20:04;34.03;;;11.98;;
75739;SDS011;64357;51.344;6.550;2023-11-21T10:22:41;36.83;;;13.77;;
75739;SDS011;64357;51.344;6.550;2023-11-21T10:25:09;30.90;;;11.98;;
75739;SDS011;64357;51.344;6.550;2023-11-21T10:27:38;31.40;;;11.90;;
75739;SDS011;64357;51.344;6.550;2023-11-21T10:30:04;29.98;;;10.70;;
75739;SDS011;64357;51.344;6.550;2023-11-21T10:32:41;28.65;;;11.68;;
75739;SDS011;64357;51.344;6.550;2023-11-21T10:35:08;30.15;;;11.27;;
75739;SDS011;64357;51.344;6.550;2023-11-21T10:37:39;35.75;;;11.88;;
75739;SDS011;64357;51.344;6.550;2023-11-21T10:40:09;31.95;;;11.80;;
75739;SDS011;64357;51.344;6.550;2023-11-21T10:42:37;39.75;;;13.70;;
75739;SDS011;64357;51.344;6.550;2023-11-21T10:47:39;37.42;;;13.27;;
75739;SDS011;64357;51.344;6.550;2023-11-21T10:50:10;35.30;;;11.88;;
75739;SDS011;64357;51.344;6.550;2023-11-21T10:52:39;35.22;;;12.23;;
75739;SDS011;64357;51.344;6.550;2023-11-21T10:55:18;28.65;;;11.07;;
75739;SDS011;64357;51.344;6.550;2023-11-21T10:57:51;27.13;;;9.57;;
75739;SDS011;64357;51.344;6.550;2023-11-21T11:00:19;30.10;;;11.45;;
75739;SDS011;64357;51.344;6.550;2023-11-21T11:02:56;25.65;;;8.60;;
75739;SDS011;64357;51.344;6.550;2023-11-21T11:05:24;27.00;;;9.23;;
75739;SDS011;64357;51.344;6.550;2023-11-21T11:07:52;27.00;;;8.40;;
75739;SDS011;64357;51.344;6.550;2023-11-21T11:10:26;24.45;;;8.32;;
75739;SDS011;64357;51.344;6.550;2023-11-21T11:12:54;28.23;;;10.60;;
75739;SDS011;64357;51.344;6.550;2023-11-21T11:15:23;26.92;;;8.68;;
75739;SDS011;64357;51.344;6.550;2023-11-21T11:17:50;26.65;;;8.73;;
75739;SDS011;64357;51.344;6.550;2023-11-21T11:20:15;24.48;;;8.35;;
75739;SDS011;64357;51.344;6.550;2023-11-21T11:25:46;21.38;;;9.13;;
75739;SDS011;64357;51.344;6.550;2023-11-21T11:33:41;25.88;;;10.00;;
75739;SDS011;64357;51.344;6.550;2023-11-21T11:36:24;25.02;;;9.77;;
75739;SDS011;64357;51.344;6.550;2023-11-21T11:38:54;24.60;;;8.77;;
75739;SDS011;64357;51.344;6.550;2023-11-21T11:41:38;22.30;;;9.68;;
75739;SDS011;64357;51.344;6.550;2023-11-21T11:44:09;23.17;;;8.18;;
75739;SDS011;64357;51.344;6.550;2023-11-21T11:47:27;25.65;;;8.70;;
75739;SDS011;64357;51.344;6.550;2023-11-21T11:55:22;26.42;;;8.10;;
75739;SDS011;64357;51.344;6.550;2023-11-21T11:57:50;25.77;;;7.70;;
75739;SDS011;64357;51.344;6.550;2023-11-21T12:03:03;27.42;;;8.60;;
75739;SDS011;64357;51.344;6.550;2023-11-21T12:05:31;24.45;;;8.18;;
75739;SDS011;64357;51.344;6.550;2023-11-21T12:08:11;24.85;;;8.38;;
75739;SDS011;64357;51.344;6.550;2023-11-21T12:10:37;24.42;;;7.65;;
75739;SDS011;64357;51.344;6.550;2023-11-21T12:15:36;25.02;;;8.38;;
75739;SDS011;64357;51.344;6.550;2023-11-21T12:18:02;28.33;;;8.85;;
75739;SDS011;64357;51.344;6.550;2023-11-21T12:20:31;26.75;;;8.05;;
75739;SDS011;64357;51.344;6.550;2023-11-21T12:23:03;30.52;;;9.48;;
75739;SDS011;64357;51.344;6.550;2023-11-21T12:25:33;28.25;;;8.82;;
75739;SDS011;64357;51.344;6.550;2023-11-21T12:28:01;23.08;;;8.82;;
75739;SDS011;64357;51.344;6.550;2023-11-21T12:30:31;25.95;;;7.78;;
75739;SDS011;64357;51.344;6.550;2023-11-21T12:33:00;27.67;;;8.52;;
75739;SDS011;64357;51.344;6.550;2023-11-21T12:35:30;22.90;;;8.10;;
75739;SDS011;64357;51.344;6.550;2023-11-21T12:37:59;29.67;;;8.18;;
75739;SDS011;64357;51.344;6.550;2023-11-21T12:40:27;27.00;;;9.30;;
75739;SDS011;64357;51.344;6.550;2023-11-21T12:42:54;23.52;;;9.07;;
75739;SDS011;64357;51.344;6.550;2023-11-21T12:45:25;20.27;;;8.30;;
75739;SDS011;64357;51.344;6.550;2023-11-21T12:47:56;24.38;;;9.23;;
75739;SDS011;64357;51.344;6.550;2023-11-21T12:50:27;24.65;;;9.43;;
75739;SDS011;64357;51.344;6.550;2023-11-21T12:53:08;22.40;;;8.43;;
75739;SDS011;64357;51.344;6.550;2023-11-21T12:55:37;24.95;;;8.07;;
75739;SDS011;64357;51.344;6.550;2023-11-21T12:58:04;21.13;;;8.25;;
75739;SDS011;64357;51.344;6.550;2023-11-21T13:00:35;25.95;;;9.10;;
75739;SDS011;64357;51.344;6.550;2023-11-21T13:03:05;22.02;;;8.40;;
75739;SDS011;64357;51.344;6.550;2023-11-21T13:05:37;23.05;;;9.63;;
75739;SDS011;64357;51.344;6.550;2023-11-21T13:08:10;22.48;;;8.30;;
75739;SDS011;64357;51.344;6.550;2023-11-21T13:10:39;19.50;;;8.38;;
75739;SDS011;64357;51.344;6.550;2023-11-21T13:13:08;26.50;;;9.80;;
75739;SDS011;64357;51.344;6.550;2023-11-21T13:15:39;21.27;;;8.38;;
75739;SDS011;64357;51.344;6.550;2023-11-21T13:18:08;20.05;;;8.15;;
75739;SDS011;64357;51.344;6.550;2023-11-21T13:20:36;16.23;;;6.80;;
75739;SDS011;64357;51.344;6.550;2023-11-21T13:23:07;26.58;;;9.43;;
75739;SDS011;64357;51.344;6.550;2023-11-21T13:25:33;22.48;;;8.52;;
75739;SDS011;64357;51.344;6.550;2023-11-21T13:28:02;22.30;;;8.38;;
75739;SDS011;64357;51.344;6.550;2023-11-21T13:30:28;23.65;;;7.95;;
75739;SDS011;64357;51.344;6.550;2023-11-21T13:32:59;18.92;;;8.38;;
75739;SDS011;64357;51.344;6.550;2023-11-21T13:35:32;22.80;;;8.63;;
75739;SDS011;64357;51.344;6.550;2023-11-21T13:38:06;21.85;;;8.63;;
75739;SDS011;64357;51.344;6.550;2023-11-21T13:40:36;20.20;;;7.85;;
75739;SDS011;64357;51.344;6.550;2023-11-21T13:43:08;18.23;;;7.88;;
75739;SDS011;64357;51.344;6.550;2023-11-21T13:45:35;25.50;;;10.18;;
75739;SDS011;64357;51.344;6.550;2023-11-21T13:48:01;24.45;;;8.95;;
75739;SDS011;64357;51.344;6.550;2023-11-21T13:50:27;23.77;;;8.85;;
75739;SDS011;64357;51.344;6.550;2023-11-21T13:52:59;22.77;;;8.98;;
75739;SDS011;64357;51.344;6.550;2023-11-21T13:55:33;26.63;;;8.85;;
75739;SDS011;64357;51.344;6.550;2023-11-21T13:58:00;23.33;;;9.05;;
75739;SDS011;64357;51.344;6.550;2023-11-21T14:00:26;28.60;;;10.35;;
75739;SDS011;64357;51.344;6.550;2023-11-21T14:03:06;28.73;;;10.60;;
75739;SDS011;64357;51.344;6.550;2023-11-21T14:05:41;34.50;;;11.00;;
75739;SDS011;64357;51.344;6.550;2023-11-21T14:08:08;31.02;;;11.48;;
75739;SDS011;64357;51.344;6.550;2023-11-21T14:10:35;32.77;;;10.90;;
75739;SDS011;64357;51.344;6.550;2023-11-21T14:13:14;35.40;;;11.85;;
75739;SDS011;64357;51.344;6.550;2023-11-21T14:15:42;32.88;;;11.32;;
75739;SDS011;64357;51.344;6.550;2023-11-21T14:18:10;38.30;;;11.32;;
75739;SDS011;64357;51.344;6.550;2023-11-21T14:20:39;32.50;;;12.60;;
75739;SDS011;64357;51.344;6.550;2023-11-21T14:23:07;31.40;;;11.65;;
75739;SDS011;64357;51.344;6.550;2023-11-21T14:25:34;33.83;;;11.53;;
75739;SDS011;64357;51.344;6.550;2023-11-21T14:28:01;35.88;;;11.55;;
75739;SDS011;64357;51.344;6.550;2023-11-21T14:30:30;35.97;;;10.93;;
75739;SDS011;64357;51.344;6.550;2023-11-21T14:32:58;32.97;;;12.10;;
75739;SDS011;64357;51.344;6.550;2023-11-21T14:35:23;33.47;;;10.80;;
75739;SDS011;64357;51.344;6.550;2023-11-21T14:37:49;25.38;;;9.25;;
75739;SDS011;64357;51.344;6.550;2023-11-21T14:40:15;22.60;;;7.75;;
75739;SDS011;64357;51.344;6.550;2023-11-21T14:42:46;25.65;;;9.02;;
75739;SDS011;64357;51.344;6.550;2023-11-21T14:45:12;24.08;;;8.55;;
75739;SDS011;64357;51.344;6.550;2023-11-21T14:47:41;21.75;;;7.97;;
75739;SDS011;64357;51.344;6.550;2023-11-21T14:50:11;24.23;;;7.65;;
75739;SDS011;64357;51.344;6.550;2023-11-21T14:52:55;21.05;;;7.20;;
75739;SDS011;64357;51.344;6.550;2023-11-21T14:55:24;22.88;;;8.20;;
75739;SDS011;64357;51.344;6.550;2023-11-21T14:58:20;19.80;;;7.30;;
75739;SDS011;64357;51.344;6.550;2023-11-21T15:01:00;20.95;;;7.43;;